ウィーン の空港の天気 - METARとTAF

ウィーン国際空港 ( LOWW / VIE ) - オーストリア ウィーン
飛行場実況気象(Metar)
観測時間06/19 18:20 CEST (06/19 16:20 UTC)
風向・風速北 6m/s
視程10km以上
天気現象
なし
気温27℃
湿度37%
気圧1021hPa
METARLOWW 191620Z 35011KT CAVOK 27/11 Q1021 NOSIG
過去の天気等 Google飛行場航空写真 Wunderground天気予報

過去48時間のMETAR

飛行場予報(TAF)
発表時間: 6/19 16:15 CEST (6/19 14:15 UTC)
予報対象時間: 19日17時 CEST ~ 20日23時 CEST
風向・風速西北西 5m/s
視程10km以上
なし
19日17時 CEST ~ 19日19時 CEST に一時的に
風向・風速北 8m/s
20日0時 CEST ~ 20日2時 CEST に徐々に
風向・風速西北西 3m/s
20日11時 CEST ~ 20日13時 CEST に徐々に
風向・風速北北東 2m/s
20日15時 CEST ~ 20日18時 CEST に徐々に
風向・風速南南東 3m/s
TAF LOWW 191415Z 1915/2021 30010KT CAVOK TX30/2012Z TN17/2003Z
TEMPO 1915/1917 35015KT
BECMG 1922/1924 30005KT
BECMG 2009/2011 03004KT
BECMG 2013/2016 16005KT